Aviation Digital Data Service (ADDS)

Output produced by METARs form (1201 UTC 26 March 2019)
found at http://www.aviationweather.gov/metar/data/
 
UTDD 261130Z 09005MPS 9999 BKN120 20/05 Q1015 R09/D NOSIG RMK QFE693/0924
TAF UTDD 260900Z 2610/2622 10005MPS 6000 SCT060CB BKN100 
     TEMPO 2610/2614 VRB02MPS 
     PROB40 
     TEMPO 2610/2614 VRB07MPS TS 
     BECMG 2613/2615 26005MPS 
     TEMPO 2614/2622 VRB07MPS TS
       
UTDL 261130Z 06007MPS 9999 SCT086 21/02 Q1014 R08/CLRD70 NOSIG RMK QFE722/0962
TAF UTDL 260900Z 2610/2619 08006MPS 9999 SCT080 
     TEMPO 2610/2614 VRB02MPS FEW060CB 
     BECMG 2614/2616 24005MPS 6000 FEW060CB 
     TEMPO 2615/2619 24008MPS SCT060CB